sensor_id;sensor_type;location;lat;lon;timestamp;P1;durP1;ratioP1;P2;durP2;ratioP2
65533;SDS011;53640;55.838;37.184;2023-02-28T00:01:06;7.32;;;4.50;;
65533;SDS011;53640;55.838;37.184;2023-02-28T00:03:32;7.68;;;4.82;;
65533;SDS011;53640;55.838;37.184;2023-02-28T00:06:05;7.03;;;4.40;;
65533;SDS011;53640;55.838;37.184;2023-02-28T00:08:32;5.97;;;3.87;;
65533;SDS011;53640;55.838;37.184;2023-02-28T00:11:02;8.95;;;4.53;;
65533;SDS011;53640;55.838;37.184;2023-02-28T00:13:30;6.93;;;4.47;;
65533;SDS011;53640;55.838;37.184;2023-02-28T00:16:04;7.45;;;4.57;;
65533;SDS011;53640;55.838;37.184;2023-02-28T00:18:34;6.25;;;4.18;;
65533;SDS011;53640;55.838;37.184;2023-02-28T00:21:00;6.57;;;4.72;;
65533;SDS011;53640;55.838;37.184;2023-02-28T00:23:27;7.05;;;4.15;;
65533;SDS011;53640;55.838;37.184;2023-02-28T00:25:54;7.05;;;4.75;;
65533;SDS011;53640;55.838;37.184;2023-02-28T00:28:20;7.72;;;4.75;;
65533;SDS011;53640;55.838;37.184;2023-02-28T00:30:47;7.40;;;4.63;;
65533;SDS011;53640;55.838;37.184;2023-02-28T00:33:13;7.63;;;5.00;;
65533;SDS011;53640;55.838;37.184;2023-02-28T00:35:40;7.32;;;4.15;;
65533;SDS011;53640;55.838;37.184;2023-02-28T00:38:09;9.32;;;4.55;;
65533;SDS011;53640;55.838;37.184;2023-02-28T00:40:35;7.80;;;4.43;;
65533;SDS011;53640;55.838;37.184;2023-02-28T00:43:02;8.40;;;4.32;;
65533;SDS011;53640;55.838;37.184;2023-02-28T00:45:29;9.45;;;4.05;;
65533;SDS011;53640;55.838;37.184;2023-02-28T00:47:57;8.23;;;4.57;;
65533;SDS011;53640;55.838;37.184;2023-02-28T00:50:23;7.97;;;4.53;;
65533;SDS011;53640;55.838;37.184;2023-02-28T00:52:50;8.98;;;4.38;;
65533;SDS011;53640;55.838;37.184;2023-02-28T00:55:16;7.90;;;4.32;;
65533;SDS011;53640;55.838;37.184;2023-02-28T00:57:42;7.18;;;4.25;;
65533;SDS011;53640;55.838;37.184;2023-02-28T01:00:09;9.40;;;4.32;;
65533;SDS011;53640;55.838;37.184;2023-02-28T01:02:36;9.13;;;4.30;;
65533;SDS011;53640;55.838;37.184;2023-02-28T01:05:03;6.35;;;3.90;;
65533;SDS011;53640;55.838;37.184;2023-02-28T01:07:30;6.03;;;4.25;;
65533;SDS011;53640;55.838;37.184;2023-02-28T01:09:56;6.35;;;4.03;;
65533;SDS011;53640;55.838;37.184;2023-02-28T01:12:24;10.70;;;3.90;;
65533;SDS011;53640;55.838;37.184;2023-02-28T01:14:51;6.43;;;4.28;;
65533;SDS011;53640;55.838;37.184;2023-02-28T01:17:17;6.65;;;4.00;;
65533;SDS011;53640;55.838;37.184;2023-02-28T01:19:43;8.38;;;3.83;;
65533;SDS011;53640;55.838;37.184;2023-02-28T01:22:10;7.50;;;4.63;;
65533;SDS011;53640;55.838;37.184;2023-02-28T01:24:37;6.88;;;4.13;;
65533;SDS011;53640;55.838;37.184;2023-02-28T01:27:03;5.72;;;3.78;;
65533;SDS011;53640;55.838;37.184;2023-02-28T01:29:30;5.88;;;3.88;;
65533;SDS011;53640;55.838;37.184;2023-02-28T01:31:56;6.00;;;3.85;;
65533;SDS011;53640;55.838;37.184;2023-02-28T01:34:25;6.10;;;3.92;;
65533;SDS011;53640;55.838;37.184;2023-02-28T01:36:51;6.80;;;4.13;;
65533;SDS011;53640;55.838;37.184;2023-02-28T01:39:18;6.88;;;3.78;;
65533;SDS011;53640;55.838;37.184;2023-02-28T01:41:45;5.28;;;3.78;;
65533;SDS011;53640;55.838;37.184;2023-02-28T01:47:15;6.85;;;3.83;;
65533;SDS011;53640;55.838;37.184;2023-02-28T01:49:42;7.35;;;4.20;;
65533;SDS011;53640;55.838;37.184;2023-02-28T01:52:09;7.97;;;4.00;;
65533;SDS011;53640;55.838;37.184;2023-02-28T01:54:40;5.28;;;3.75;;
65533;SDS011;53640;55.838;37.184;2023-02-28T01:57:08;7.35;;;3.92;;
65533;SDS011;53640;55.838;37.184;2023-02-28T01:59:39;6.20;;;4.20;;
65533;SDS011;53640;55.838;37.184;2023-02-28T02:02:20;7.47;;;3.75;;
65533;SDS011;53640;55.838;37.184;2023-02-28T02:04:55;10.27;;;4.15;;
65533;SDS011;53640;55.838;37.184;2023-02-28T02:07:29;6.43;;;4.00;;
65533;SDS011;53640;55.838;37.184;2023-02-28T02:10:04;6.78;;;4.03;;
65533;SDS011;53640;55.838;37.184;2023-02-28T02:32:56;8.13;;;3.75;;
65533;SDS011;53640;55.838;37.184;2023-02-28T02:38:45;7.25;;;4.43;;
65533;SDS011;53640;55.838;37.184;2023-02-28T02:41:28;7.32;;;4.00;;
65533;SDS011;53640;55.838;37.184;2023-02-28T02:46:54;5.55;;;3.55;;
65533;SDS011;53640;55.838;37.184;2023-02-28T02:49:28;5.93;;;4.05;;
65533;SDS011;53640;55.838;37.184;2023-02-28T02:52:00;6.35;;;3.88;;
65533;SDS011;53640;55.838;37.184;2023-02-28T02:54:35;6.28;;;3.90;;
65533;SDS011;53640;55.838;37.184;2023-02-28T02:57:06;9.95;;;4.15;;
65533;SDS011;53640;55.838;37.184;2023-02-28T02:59:36;4.55;;;3.58;;
65533;SDS011;53640;55.838;37.184;2023-02-28T03:02:06;4.63;;;3.47;;
65533;SDS011;53640;55.838;37.184;2023-02-28T03:04:48;4.40;;;3.45;;
65533;SDS011;53640;55.838;37.184;2023-02-28T03:07:20;4.95;;;3.33;;
65533;SDS011;53640;55.838;37.184;2023-02-28T03:09:55;6.13;;;3.85;;
65533;SDS011;53640;55.838;37.184;2023-02-28T03:12:23;5.40;;;3.45;;
65533;SDS011;53640;55.838;37.184;2023-02-28T03:18:03;7.75;;;3.58;;
65533;SDS011;53640;55.838;37.184;2023-02-28T03:21:06;7.70;;;3.88;;
65533;SDS011;53640;55.838;37.184;2023-02-28T03:24:23;7.63;;;3.58;;
65533;SDS011;53640;55.838;37.184;2023-02-28T03:26:31;6.85;;;3.72;;
65533;SDS011;53640;55.838;37.184;2023-02-28T03:29:15;7.63;;;4.20;;
65533;SDS011;53640;55.838;37.184;2023-02-28T03:31:58;9.60;;;4.53;;
65533;SDS011;53640;55.838;37.184;2023-02-28T03:34:33;9.52;;;4.20;;
65533;SDS011;53640;55.838;37.184;2023-02-28T03:37:09;9.48;;;4.05;;
65533;SDS011;53640;55.838;37.184;2023-02-28T03:39:42;10.57;;;4.35;;
65533;SDS011;53640;55.838;37.184;2023-02-28T03:44:42;10.80;;;4.03;;
65533;SDS011;53640;55.838;37.184;2023-02-28T03:47:17;7.63;;;3.70;;
65533;SDS011;53640;55.838;37.184;2023-02-28T03:49:53;11.43;;;4.10;;
65533;SDS011;53640;55.838;37.184;2023-02-28T03:52:31;9.15;;;4.18;;
65533;SDS011;53640;55.838;37.184;2023-02-28T03:55:06;10.98;;;4.55;;
65533;SDS011;53640;55.838;37.184;2023-02-28T03:57:37;8.18;;;4.00;;
65533;SDS011;53640;55.838;37.184;2023-02-28T04:00:14;6.13;;;4.00;;
65533;SDS011;53640;55.838;37.184;2023-02-28T04:03:02;7.43;;;3.92;;
65533;SDS011;53640;55.838;37.184;2023-02-28T04:05:30;8.45;;;3.90;;
65533;SDS011;53640;55.838;37.184;2023-02-28T04:08:05;7.60;;;3.65;;
65533;SDS011;53640;55.838;37.184;2023-02-28T04:10:33;5.32;;;3.47;;
65533;SDS011;53640;55.838;37.184;2023-02-28T04:13:01;6.60;;;3.58;;
65533;SDS011;53640;55.838;37.184;2023-02-28T04:15:28;6.60;;;3.47;;
65533;SDS011;53640;55.838;37.184;2023-02-28T04:17:54;6.47;;;3.95;;
65533;SDS011;53640;55.838;37.184;2023-02-28T04:20:21;6.40;;;3.70;;
65533;SDS011;53640;55.838;37.184;2023-02-28T04:22:47;5.97;;;3.72;;
65533;SDS011;53640;55.838;37.184;2023-02-28T04:25:13;7.95;;;3.78;;
65533;SDS011;53640;55.838;37.184;2023-02-28T04:27:40;5.88;;;3.38;;
65533;SDS011;53640;55.838;37.184;2023-02-28T04:30:06;6.65;;;3.70;;
65533;SDS011;53640;55.838;37.184;2023-02-28T04:32:33;6.63;;;3.53;;
65533;SDS011;53640;55.838;37.184;2023-02-28T04:34:59;6.68;;;3.35;;
65533;SDS011;53640;55.838;37.184;2023-02-28T04:37:26;6.13;;;3.40;;
65533;SDS011;53640;55.838;37.184;2023-02-28T04:39:54;10.43;;;4.05;;
65533;SDS011;53640;55.838;37.184;2023-02-28T04:42:20;8.05;;;4.22;;
65533;SDS011;53640;55.838;37.184;2023-02-28T04:44:47;6.20;;;3.70;;
65533;SDS011;53640;55.838;37.184;2023-02-28T04:47:16;6.30;;;3.72;;
65533;SDS011;53640;55.838;37.184;2023-02-28T04:49:53;6.80;;;3.92;;
65533;SDS011;53640;55.838;37.184;2023-02-28T04:52:20;5.95;;;3.60;;
65533;SDS011;53640;55.838;37.184;2023-02-28T04:55:19;6.53;;;3.10;;
65533;SDS011;53640;55.838;37.184;2023-02-28T04:58:44;5.72;;;3.90;;
65533;SDS011;53640;55.838;37.184;2023-02-28T05:01:18;6.82;;;3.72;;
65533;SDS011;53640;55.838;37.184;2023-02-28T05:04:05;7.15;;;3.97;;
65533;SDS011;53640;55.838;37.184;2023-02-28T05:10:51;4.85;;;3.40;;
65533;SDS011;53640;55.838;37.184;2023-02-28T05:13:27;5.28;;;3.33;;
65533;SDS011;53640;55.838;37.184;2023-02-28T05:17:14;4.05;;;2.58;;
65533;SDS011;53640;55.838;37.184;2023-02-28T05:20:05;4.20;;;2.75;;
65533;SDS011;53640;55.838;37.184;2023-02-28T05:22:37;5.43;;;3.30;;
65533;SDS011;53640;55.838;37.184;2023-02-28T05:25:04;4.35;;;3.00;;
65533;SDS011;53640;55.838;37.184;2023-02-28T05:33:46;8.05;;;3.10;;
65533;SDS011;53640;55.838;37.184;2023-02-28T05:36:25;6.50;;;3.08;;
65533;SDS011;53640;55.838;37.184;2023-02-28T05:39:14;4.75;;;3.05;;
65533;SDS011;53640;55.838;37.184;2023-02-28T05:43:23;4.40;;;2.75;;
65533;SDS011;53640;55.838;37.184;2023-02-28T05:46:55;5.38;;;3.03;;
65533;SDS011;53640;55.838;37.184;2023-02-28T05:49:26;6.55;;;3.42;;
65533;SDS011;53640;55.838;37.184;2023-02-28T05:51:54;4.05;;;2.78;;
65533;SDS011;53640;55.838;37.184;2023-02-28T05:54:23;4.13;;;2.92;;
65533;SDS011;53640;55.838;37.184;2023-02-28T05:57:13;4.18;;;2.95;;
65533;SDS011;53640;55.838;37.184;2023-02-28T05:59:49;5.75;;;2.92;;
65533;SDS011;53640;55.838;37.184;2023-02-28T06:02:22;5.18;;;3.10;;
65533;SDS011;53640;55.838;37.184;2023-02-28T06:05:32;3.70;;;2.67;;
65533;SDS011;53640;55.838;37.184;2023-02-28T06:08:18;7.32;;;3.63;;
65533;SDS011;53640;55.838;37.184;2023-02-28T06:13:52;6.35;;;3.40;;
65533;SDS011;53640;55.838;37.184;2023-02-28T06:18:53;5.13;;;2.88;;
65533;SDS011;53640;55.838;37.184;2023-02-28T06:21:22;5.55;;;2.80;;
65533;SDS011;53640;55.838;37.184;2023-02-28T06:23:48;3.75;;;2.83;;
65533;SDS011;53640;55.838;37.184;2023-02-28T06:26:17;5.30;;;3.10;;
65533;SDS011;53640;55.838;37.184;2023-02-28T06:28:46;5.68;;;2.85;;
65533;SDS011;53640;55.838;37.184;2023-02-28T06:31:14;4.15;;;3.22;;
65533;SDS011;53640;55.838;37.184;2023-02-28T06:33:42;5.35;;;3.15;;
65533;SDS011;53640;55.838;37.184;2023-02-28T06:36:11;4.90;;;3.03;;
65533;SDS011;53640;55.838;37.184;2023-02-28T06:38:41;5.70;;;3.22;;
65533;SDS011;53640;55.838;37.184;2023-02-28T06:41:25;5.40;;;2.83;;
65533;SDS011;53640;55.838;37.184;2023-02-28T06:44:15;4.85;;;3.38;;
65533;SDS011;53640;55.838;37.184;2023-02-28T06:46:46;4.13;;;2.60;;
65533;SDS011;53640;55.838;37.184;2023-02-28T06:49:16;5.25;;;3.20;;
65533;SDS011;53640;55.838;37.184;2023-02-28T06:51:45;3.75;;;2.63;;
65533;SDS011;53640;55.838;37.184;2023-02-28T06:55:07;4.32;;;2.50;;
65533;SDS011;53640;55.838;37.184;2023-02-28T06:57:36;5.90;;;2.67;;
65533;SDS011;53640;55.838;37.184;2023-02-28T07:00:17;4.88;;;2.63;;
65533;SDS011;53640;55.838;37.184;2023-02-28T07:04:04;5.38;;;3.08;;
65533;SDS011;53640;55.838;37.184;2023-02-28T07:07:11;3.35;;;2.47;;
65533;SDS011;53640;55.838;37.184;2023-02-28T07:09:46;4.32;;;2.97;;
65533;SDS011;53640;55.838;37.184;2023-02-28T07:12:19;7.70;;;3.15;;
65533;SDS011;53640;55.838;37.184;2023-02-28T07:14:46;4.25;;;2.88;;
65533;SDS011;53640;55.838;37.184;2023-02-28T07:17:20;4.68;;;2.95;;
65533;SDS011;53640;55.838;37.184;2023-02-28T07:22:34;3.60;;;2.65;;
65533;SDS011;53640;55.838;37.184;2023-02-28T07:25:01;15.57;;;3.58;;
65533;SDS011;53640;55.838;37.184;2023-02-28T07:27:29;5.13;;;3.10;;
65533;SDS011;53640;55.838;37.184;2023-02-28T07:29:58;4.32;;;2.80;;
65533;SDS011;53640;55.838;37.184;2023-02-28T07:32:29;5.18;;;2.95;;
65533;SDS011;53640;55.838;37.184;2023-02-28T07:34:56;5.60;;;3.03;;
65533;SDS011;53640;55.838;37.184;2023-02-28T07:37:23;6.22;;;2.97;;
65533;SDS011;53640;55.838;37.184;2023-02-28T07:39:50;5.85;;;3.20;;
65533;SDS011;53640;55.838;37.184;2023-02-28T07:42:18;4.95;;;2.80;;
65533;SDS011;53640;55.838;37.184;2023-02-28T07:44:48;8.43;;;3.35;;
65533;SDS011;53640;55.838;37.184;2023-02-28T07:47:14;5.82;;;3.45;;
65533;SDS011;53640;55.838;37.184;2023-02-28T07:49:42;4.53;;;2.85;;
65533;SDS011;53640;55.838;37.184;2023-02-28T07:52:09;11.15;;;3.50;;
65533;SDS011;53640;55.838;37.184;2023-02-28T07:54:35;4.70;;;2.88;;
65533;SDS011;53640;55.838;37.184;2023-02-28T07:57:02;6.60;;;3.28;;
65533;SDS011;53640;55.838;37.184;2023-02-28T07:59:28;5.35;;;2.95;;
65533;SDS011;53640;55.838;37.184;2023-02-28T08:01:56;5.18;;;2.95;;
65533;SDS011;53640;55.838;37.184;2023-02-28T08:04:23;3.78;;;2.63;;
65533;SDS011;53640;55.838;37.184;2023-02-28T08:06:50;5.38;;;2.80;;
65533;SDS011;53640;55.838;37.184;2023-02-28T08:09:20;6.07;;;2.88;;
65533;SDS011;53640;55.838;37.184;2023-02-28T08:11:47;3.65;;;2.58;;
65533;SDS011;53640;55.838;37.184;2023-02-28T08:21:41;5.40;;;2.92;;
65533;SDS011;53640;55.838;37.184;2023-02-28T08:29:06;3.63;;;2.75;;
65533;SDS011;53640;55.838;37.184;2023-02-28T08:31:38;5.13;;;2.60;;
65533;SDS011;53640;55.838;37.184;2023-02-28T08:34:07;4.82;;;2.65;;
65533;SDS011;53640;55.838;37.184;2023-02-28T08:37:01;4.55;;;2.42;;
65533;SDS011;53640;55.838;37.184;2023-02-28T08:39:34;4.93;;;2.55;;
65533;SDS011;53640;55.838;37.184;2023-02-28T08:42:02;4.05;;;2.63;;
65533;SDS011;53640;55.838;37.184;2023-02-28T08:44:29;4.38;;;2.58;;
65533;SDS011;53640;55.838;37.184;2023-02-28T08:46:56;3.97;;;2.38;;
65533;SDS011;53640;55.838;37.184;2023-02-28T08:49:23;3.70;;;2.70;;
65533;SDS011;53640;55.838;37.184;2023-02-28T08:51:49;4.25;;;2.72;;
65533;SDS011;53640;55.838;37.184;2023-02-28T08:54:18;4.07;;;2.70;;
65533;SDS011;53640;55.838;37.184;2023-02-28T08:56:46;3.65;;;2.50;;
65533;SDS011;53640;55.838;37.184;2023-02-28T08:59:14;4.97;;;2.58;;
65533;SDS011;53640;55.838;37.184;2023-02-28T09:01:41;4.68;;;2.67;;
65533;SDS011;53640;55.838;37.184;2023-02-28T09:04:09;5.93;;;3.13;;
65533;SDS011;53640;55.838;37.184;2023-02-28T09:06:37;4.72;;;2.60;;
65533;SDS011;53640;55.838;37.184;2023-02-28T09:09:04;5.03;;;3.08;;
65533;SDS011;53640;55.838;37.184;2023-02-28T09:11:33;3.13;;;2.47;;
65533;SDS011;53640;55.838;37.184;2023-02-28T09:14:00;3.90;;;2.88;;
65533;SDS011;53640;55.838;37.184;2023-02-28T09:16:30;3.75;;;2.75;;
65533;SDS011;53640;55.838;37.184;2023-02-28T09:19:00;4.53;;;2.70;;
65533;SDS011;53640;55.838;37.184;2023-02-28T09:21:27;4.97;;;2.60;;
65533;SDS011;53640;55.838;37.184;2023-02-28T09:23:54;3.95;;;2.50;;
65533;SDS011;53640;55.838;37.184;2023-02-28T09:26:24;4.80;;;2.63;;
65533;SDS011;53640;55.838;37.184;2023-02-28T09:28:55;4.40;;;2.72;;
65533;SDS011;53640;55.838;37.184;2023-02-28T09:31:25;6.05;;;3.53;;
65533;SDS011;53640;55.838;37.184;2023-02-28T09:33:56;2.90;;;2.15;;
65533;SDS011;53640;55.838;37.184;2023-02-28T09:36:25;3.90;;;2.30;;
65533;SDS011;53640;55.838;37.184;2023-02-28T09:38:52;3.95;;;2.10;;
65533;SDS011;53640;55.838;37.184;2023-02-28T09:41:24;7.28;;;2.35;;
65533;SDS011;53640;55.838;37.184;2023-02-28T09:43:57;2.15;;;1.95;;
65533;SDS011;53640;55.838;37.184;2023-02-28T09:46:37;4.15;;;2.10;;
65533;SDS011;53640;55.838;37.184;2023-02-28T09:49:07;3.65;;;2.35;;
65533;SDS011;53640;55.838;37.184;2023-02-28T09:52:00;2.83;;;2.25;;
65533;SDS011;53640;55.838;37.184;2023-02-28T09:54:30;3.80;;;2.47;;
65533;SDS011;53640;55.838;37.184;2023-02-28T09:57:11;2.72;;;2.10;;
65533;SDS011;53640;55.838;37.184;2023-02-28T09:59:54;6.20;;;2.95;;
65533;SDS011;53640;55.838;37.184;2023-02-28T10:05:43;4.90;;;2.97;;
65533;SDS011;53640;55.838;37.184;2023-02-28T10:08:16;3.35;;;2.60;;
65533;SDS011;53640;55.838;37.184;2023-02-28T10:10:53;5.50;;;3.03;;
65533;SDS011;53640;55.838;37.184;2023-02-28T10:22:15;6.75;;;2.65;;
65533;SDS011;53640;55.838;37.184;2023-02-28T10:24:46;5.75;;;2.33;;
65533;SDS011;53640;55.838;37.184;2023-02-28T10:27:19;6.80;;;3.03;;
65533;SDS011;53640;55.838;37.184;2023-02-28T10:29:52;5.72;;;3.00;;
65533;SDS011;53640;55.838;37.184;2023-02-28T10:32:24;4.85;;;3.10;;
65533;SDS011;53640;55.838;37.184;2023-02-28T10:34:59;3.92;;;2.50;;
65533;SDS011;53640;55.838;37.184;2023-02-28T10:37:27;4.82;;;2.95;;
65533;SDS011;53640;55.838;37.184;2023-02-28T10:39:54;6.82;;;2.45;;
65533;SDS011;53640;55.838;37.184;2023-02-28T10:42:28;8.32;;;2.67;;
65533;SDS011;53640;55.838;37.184;2023-02-28T10:45:15;5.18;;;2.90;;
65533;SDS011;53640;55.838;37.184;2023-02-28T10:47:51;7.53;;;3.42;;
65533;SDS011;53640;55.838;37.184;2023-02-28T10:50:35;8.35;;;3.15;;
65533;SDS011;53640;55.838;37.184;2023-02-28T10:55:41;8.23;;;3.50;;
65533;SDS011;53640;55.838;37.184;2023-02-28T11:01:16;7.85;;;4.38;;
65533;SDS011;53640;55.838;37.184;2023-02-28T11:03:44;5.78;;;3.65;;
65533;SDS011;53640;55.838;37.184;2023-02-28T11:06:15;5.70;;;3.00;;
65533;SDS011;53640;55.838;37.184;2023-02-28T11:08:59;5.70;;;3.30;;
65533;SDS011;53640;55.838;37.184;2023-02-28T11:11:46;4.55;;;2.72;;
65533;SDS011;53640;55.838;37.184;2023-02-28T11:17:10;3.85;;;2.63;;
65533;SDS011;53640;55.838;37.184;2023-02-28T11:19:44;4.63;;;2.88;;
65533;SDS011;53640;55.838;37.184;2023-02-28T11:22:35;5.25;;;3.10;;
65533;SDS011;53640;55.838;37.184;2023-02-28T11:25:09;8.75;;;3.78;;
65533;SDS011;53640;55.838;37.184;2023-02-28T11:27:59;6.53;;;3.33;;
65533;SDS011;53640;55.838;37.184;2023-02-28T11:33:01;4.53;;;2.80;;
65533;SDS011;53640;55.838;37.184;2023-02-28T11:35:44;4.80;;;2.70;;
65533;SDS011;53640;55.838;37.184;2023-02-28T11:38:14;4.68;;;2.83;;
65533;SDS011;53640;55.838;37.184;2023-02-28T11:48:44;5.40;;;2.75;;
65533;SDS011;53640;55.838;37.184;2023-02-28T11:51:35;6.00;;;2.60;;
65533;SDS011;53640;55.838;37.184;2023-02-28T11:54:23;4.15;;;2.38;;
65533;SDS011;53640;55.838;37.184;2023-02-28T11:56:55;4.07;;;2.72;;
65533;SDS011;53640;55.838;37.184;2023-02-28T12:02:28;3.72;;;2.88;;
65533;SDS011;53640;55.838;37.184;2023-02-28T12:07:49;5.47;;;3.30;;
65533;SDS011;53640;55.838;37.184;2023-02-28T12:16:16;6.97;;;3.50;;
65533;SDS011;53640;55.838;37.184;2023-02-28T12:22:18;5.13;;;3.13;;
65533;SDS011;53640;55.838;37.184;2023-02-28T12:24:45;5.57;;;3.25;;
65533;SDS011;53640;55.838;37.184;2023-02-28T12:27:21;4.68;;;3.15;;
65533;SDS011;53640;55.838;37.184;2023-02-28T12:33:06;5.30;;;3.08;;
65533;SDS011;53640;55.838;37.184;2023-02-28T12:35:40;5.63;;;2.35;;
65533;SDS011;53640;55.838;37.184;2023-02-28T12:38:27;4.32;;;2.70;;
65533;SDS011;53640;55.838;37.184;2023-02-28T12:41:04;5.15;;;2.83;;
65533;SDS011;53640;55.838;37.184;2023-02-28T12:43:51;2.70;;;2.28;;
65533;SDS011;53640;55.838;37.184;2023-02-28T12:46:30;4.30;;;2.58;;
65533;SDS011;53640;55.838;37.184;2023-02-28T12:49:24;4.00;;;2.40;;
65533;SDS011;53640;55.838;37.184;2023-02-28T12:51:59;3.33;;;2.30;;
65533;SDS011;53640;55.838;37.184;2023-02-28T12:54:35;4.85;;;2.58;;
65533;SDS011;53640;55.838;37.184;2023-02-28T12:57:15;2.75;;;2.30;;
65533;SDS011;53640;55.838;37.184;2023-02-28T13:00:16;4.18;;;2.80;;
65533;SDS011;53640;55.838;37.184;2023-02-28T13:11:31;6.07;;;3.35;;
65533;SDS011;53640;55.838;37.184;2023-02-28T13:14:16;3.17;;;2.40;;
65533;SDS011;53640;55.838;37.184;2023-02-28T13:19:46;3.33;;;2.50;;
65533;SDS011;53640;55.838;37.184;2023-02-28T13:28:02;2.53;;;2.15;;
65533;SDS011;53640;55.838;37.184;2023-02-28T13:33:33;4.38;;;2.45;;
65533;SDS011;53640;55.838;37.184;2023-02-28T13:46:30;5.10;;;3.30;;
65533;SDS011;53640;55.838;37.184;2023-02-28T13:49:26;4.30;;;3.10;;
65533;SDS011;53640;55.838;37.184;2023-02-28T13:52:02;4.45;;;2.60;;
65533;SDS011;53640;55.838;37.184;2023-02-28T13:54:51;4.63;;;2.35;;
65533;SDS011;53640;55.838;37.184;2023-02-28T14:03:14;5.65;;;2.90;;
65533;SDS011;53640;55.838;37.184;2023-02-28T14:11:46;5.32;;;3.45;;
65533;SDS011;53640;55.838;37.184;2023-02-28T14:17:02;6.40;;;2.35;;
65533;SDS011;53640;55.838;37.184;2023-02-28T14:19:32;5.35;;;2.40;;
65533;SDS011;53640;55.838;37.184;2023-02-28T14:22:29;3.75;;;2.80;;
65533;SDS011;53640;55.838;37.184;2023-02-28T14:30:29;3.97;;;2.70;;
65533;SDS011;53640;55.838;37.184;2023-02-28T14:39:05;4.18;;;2.50;;
65533;SDS011;53640;55.838;37.184;2023-02-28T14:41:37;3.10;;;2.53;;
65533;SDS011;53640;55.838;37.184;2023-02-28T14:44:22;4.72;;;2.67;;
65533;SDS011;53640;55.838;37.184;2023-02-28T14:46:55;2.83;;;2.53;;
65533;SDS011;53640;55.838;37.184;2023-02-28T14:54:51;4.30;;;2.50;;
65533;SDS011;53640;55.838;37.184;2023-02-28T14:57:21;2.30;;;2.00;;
65533;SDS011;53640;55.838;37.184;2023-02-28T15:02:52;2.42;;;2.22;;
65533;SDS011;53640;55.838;37.184;2023-02-28T15:05:26;3.55;;;2.20;;
65533;SDS011;53640;55.838;37.184;2023-02-28T15:08:29;2.22;;;2.03;;
65533;SDS011;53640;55.838;37.184;2023-02-28T15:10:58;4.20;;;2.28;;
65533;SDS011;53640;55.838;37.184;2023-02-28T15:13:34;2.65;;;2.30;;
65533;SDS011;53640;55.838;37.184;2023-02-28T15:16:09;4.65;;;2.60;;
65533;SDS011;53640;55.838;37.184;2023-02-28T15:18:48;4.65;;;2.15;;
65533;SDS011;53640;55.838;37.184;2023-02-28T15:23:56;2.22;;;2.03;;
65533;SDS011;53640;55.838;37.184;2023-02-28T15:26:41;2.15;;;1.92;;
65533;SDS011;53640;55.838;37.184;2023-02-28T15:29:13;3.92;;;2.05;;
65533;SDS011;53640;55.838;37.184;2023-02-28T15:31:48;1.95;;;1.80;;
65533;SDS011;53640;55.838;37.184;2023-02-28T15:34:22;3.38;;;2.03;;
65533;SDS011;53640;55.838;37.184;2023-02-28T15:36:54;2.38;;;2.17;;
65533;SDS011;53640;55.838;37.184;2023-02-28T15:39:22;2.88;;;2.08;;
65533;SDS011;53640;55.838;37.184;2023-02-28T15:42:09;2.42;;;2.00;;
65533;SDS011;53640;55.838;37.184;2023-02-28T15:44:43;2.47;;;2.13;;
65533;SDS011;53640;55.838;37.184;2023-02-28T15:47:19;2.30;;;2.10;;
65533;SDS011;53640;55.838;37.184;2023-02-28T15:50:13;3.72;;;2.50;;
65533;SDS011;53640;55.838;37.184;2023-02-28T15:52:41;2.00;;;1.80;;
65533;SDS011;53640;55.838;37.184;2023-02-28T15:55:20;3.85;;;2.28;;
65533;SDS011;53640;55.838;37.184;2023-02-28T15:57:53;2.28;;;2.05;;
65533;SDS011;53640;55.838;37.184;2023-02-28T16:00:25;2.80;;;1.80;;
65533;SDS011;53640;55.838;37.184;2023-02-28T16:02:54;2.85;;;2.05;;
65533;SDS011;53640;55.838;37.184;2023-02-28T16:05:27;2.38;;;2.17;;
65533;SDS011;53640;55.838;37.184;2023-02-28T16:07:59;2.72;;;2.25;;
65533;SDS011;53640;55.838;37.184;2023-02-28T16:10:40;2.08;;;1.88;;
65533;SDS011;53640;55.838;37.184;2023-02-28T16:13:11;3.97;;;2.22;;
65533;SDS011;53640;55.838;37.184;2023-02-28T16:15:43;2.88;;;2.17;;
65533;SDS011;53640;55.838;37.184;2023-02-28T16:18:11;3.42;;;2.42;;
65533;SDS011;53640;55.838;37.184;2023-02-28T16:20:39;2.05;;;1.85;;
65533;SDS011;53640;55.838;37.184;2023-02-28T16:23:10;2.25;;;2.05;;
65533;SDS011;53640;55.838;37.184;2023-02-28T16:25:41;2.97;;;2.05;;
65533;SDS011;53640;55.838;37.184;2023-02-28T16:28:32;3.28;;;2.00;;
65533;SDS011;53640;55.838;37.184;2023-02-28T16:31:00;2.28;;;1.98;;
65533;SDS011;53640;55.838;37.184;2023-02-28T16:33:31;2.75;;;2.17;;
65533;SDS011;53640;55.838;37.184;2023-02-28T16:35:59;2.92;;;2.03;;
65533;SDS011;53640;55.838;37.184;2023-02-28T16:38:27;2.92;;;2.10;;
65533;SDS011;53640;55.838;37.184;2023-02-28T16:40:55;7.10;;;2.33;;
65533;SDS011;53640;55.838;37.184;2023-02-28T16:43:27;3.55;;;1.90;;
65533;SDS011;53640;55.838;37.184;2023-02-28T16:46:04;2.13;;;1.90;;
65533;SDS011;53640;55.838;37.184;2023-02-28T16:48:32;2.13;;;1.92;;
65533;SDS011;53640;55.838;37.184;2023-02-28T16:51:03;3.28;;;2.33;;
65533;SDS011;53640;55.838;37.184;2023-02-28T16:53:31;2.67;;;2.00;;
65533;SDS011;53640;55.838;37.184;2023-02-28T16:55:58;2.33;;;1.90;;
65533;SDS011;53640;55.838;37.184;2023-02-28T16:58:28;3.15;;;2.55;;
65533;SDS011;53640;55.838;37.184;2023-02-28T17:00:54;1.90;;;1.50;;
65533;SDS011;53640;55.838;37.184;2023-02-28T17:05:51;1.20;;;0.88;;
65533;SDS011;53640;55.838;37.184;2023-02-28T17:08:18;1.15;;;0.90;;
65533;SDS011;53640;55.838;37.184;2023-02-28T17:10:46;1.42;;;0.80;;
65533;SDS011;53640;55.838;37.184;2023-02-28T17:13:13;0.90;;;0.90;;
65533;SDS011;53640;55.838;37.184;2023-02-28T17:15:39;1.02;;;1.00;;
65533;SDS011;53640;55.838;37.184;2023-02-28T17:18:08;1.38;;;1.27;;
65533;SDS011;53640;55.838;37.184;2023-02-28T17:20:40;4.97;;;1.70;;
65533;SDS011;53640;55.838;37.184;2023-02-28T17:23:19;2.58;;;1.85;;
65533;SDS011;53640;55.838;37.184;2023-02-28T17:25:46;6.07;;;2.00;;
65533;SDS011;53640;55.838;37.184;2023-02-28T17:28:21;3.63;;;2.20;;
65533;SDS011;53640;55.838;37.184;2023-02-28T17:30:48;5.95;;;2.28;;
65533;SDS011;53640;55.838;37.184;2023-02-28T17:33:15;1.95;;;1.80;;
65533;SDS011;53640;55.838;37.184;2023-02-28T17:35:42;3.15;;;2.10;;
65533;SDS011;53640;55.838;37.184;2023-02-28T17:38:15;2.17;;;1.90;;
65533;SDS011;53640;55.838;37.184;2023-02-28T17:40:50;2.63;;;1.88;;
65533;SDS011;53640;55.838;37.184;2023-02-28T17:43:40;3.10;;;2.28;;
65533;SDS011;53640;55.838;37.184;2023-02-28T17:46:17;2.50;;;1.90;;
65533;SDS011;53640;55.838;37.184;2023-02-28T17:48:49;3.75;;;2.40;;
65533;SDS011;53640;55.838;37.184;2023-02-28T17:51:17;1.60;;;1.50;;
65533;SDS011;53640;55.838;37.184;2023-02-28T17:53:45;1.52;;;1.40;;
65533;SDS011;53640;55.838;37.184;2023-02-28T17:56:25;3.17;;;1.40;;
65533;SDS011;53640;55.838;37.184;2023-02-28T17:58:54;1.90;;;1.52;;
65533;SDS011;53640;55.838;37.184;2023-02-28T18:01:24;3.85;;;1.75;;
65533;SDS011;53640;55.838;37.184;2023-02-28T18:03:54;2.13;;;1.50;;
65533;SDS011;53640;55.838;37.184;2023-02-28T18:06:24;2.03;;;1.33;;
65533;SDS011;53640;55.838;37.184;2023-02-28T18:08:53;2.72;;;1.58;;
65533;SDS011;53640;55.838;37.184;2023-02-28T18:11:20;3.42;;;1.35;;
65533;SDS011;53640;55.838;37.184;2023-02-28T18:13:50;2.67;;;1.13;;
65533;SDS011;53640;55.838;37.184;2023-02-28T18:16:22;3.00;;;1.05;;
65533;SDS011;53640;55.838;37.184;2023-02-28T18:18:49;3.40;;;0.90;;